createdAt,value
2019-02-06T00:02:23.692Z,102222.86
2019-02-06T00:07:26.976Z,102224.94
2019-02-06T00:12:30.274Z,102220.77
2019-02-06T00:17:33.622Z,102235.45
2019-02-06T00:22:36.917Z,102241.98
2019-02-06T00:27:40.596Z,102242.55
2019-02-06T00:32:43.959Z,102263.34
2019-02-06T00:37:47.238Z,102251.52
2019-02-06T00:42:50.507Z,102255.95
2019-02-06T00:47:53.782Z,102269.02
2019-02-06T00:52:57.347Z,102263.70
2019-02-06T00:58:00.622Z,102263.30
2019-02-06T01:08:13.058Z,102277.20
2019-02-06T01:13:16.385Z,102277.59
2019-02-06T01:18:19.693Z,102284.49
2019-02-06T01:23:22.982Z,102289.62
2019-02-06T01:28:26.278Z,102287.14
2019-02-06T01:33:29.642Z,102299.77
2019-02-06T01:38:32.914Z,102303.86
2019-02-06T01:43:36.648Z,102308.00
2019-02-06T01:48:39.940Z,102298.28
2019-02-06T01:53:43.210Z,102293.59
2019-02-06T01:58:46.503Z,102295.86
2019-02-06T02:03:49.814Z,102301.59
2019-02-06T02:08:55.030Z,102293.80
2019-02-06T02:13:58.326Z,102295.18
2019-02-06T02:19:01.649Z,102292.70
2019-02-06T02:24:04.944Z,102300.55
2019-02-06T02:29:08.236Z,102299.61
2019-02-06T02:34:11.599Z,102302.66
2019-02-06T02:39:14.901Z,102301.03
2019-02-06T02:44:18.218Z,102311.83
2019-02-06T02:49:21.519Z,102315.88
2019-02-06T02:54:24.797Z,102315.72
2019-02-06T02:59:28.068Z,102323.05
2019-02-06T03:04:31.418Z,102330.12
2019-02-06T03:09:34.691Z,102324.06
2019-02-06T03:14:37.985Z,102317.84
2019-02-06T03:19:41.258Z,102322.97
2019-02-06T03:24:44.535Z,102332.34
2019-02-06T03:29:47.802Z,102334.70
2019-02-06T03:34:51.145Z,102336.81
2019-02-06T03:39:54.429Z,102340.99
2019-02-06T03:44:57.720Z,102334.49
2019-02-06T03:50:01.074Z,102349.08
2019-02-06T03:55:05.959Z,102348.38
2019-02-06T04:00:34.419Z,102360.12
2019-02-06T04:05:37.710Z,102368.40
2019-02-06T04:10:41.005Z,102376.03
2019-02-06T04:15:44.360Z,102379.92
2019-02-06T04:20:47.687Z,102374.22
2019-02-06T04:25:51.352Z,102372.30
2019-02-06T04:30:54.638Z,102372.30
2019-02-06T04:35:57.908Z,102382.25
2019-02-06T04:41:01.180Z,102384.38
2019-02-06T04:46:04.513Z,102385.69
2019-02-06T04:51:08.138Z,102384.46
2019-02-06T04:56:11.439Z,102387.87
2019-02-06T05:01:14.756Z,102382.01
2019-02-06T05:06:18.092Z,102386.30
2019-02-06T05:11:21.329Z,102390.23
2019-02-06T05:16:24.596Z,102397.03
2019-02-06T05:21:27.866Z,102394.27
2019-02-06T05:26:31.153Z,102394.86
2019-02-06T05:31:34.448Z,102402.16
2019-02-06T05:36:37.843Z,102412.70
2019-02-06T05:41:41.109Z,102410.04
2019-02-06T05:46:44.428Z,102414.13
2019-02-06T05:51:47.696Z,102421.81
2019-02-06T05:56:51.361Z,102423.43
2019-02-06T06:01:54.725Z,102412.48
2019-02-06T06:06:58.024Z,102422.83
2019-02-06T06:12:01.364Z,102419.77
2019-02-06T06:17:04.739Z,102421.16
2019-02-06T06:22:08.024Z,102420.09
2019-02-06T06:27:11.318Z,102437.83
2019-02-06T06:32:14.595Z,102426.59
2019-02-06T06:37:18.135Z,102426.98
2019-02-06T06:42:24.142Z,102429.66
2019-02-06T06:47:26.510Z,102429.75
2019-02-06T06:52:29.799Z,102436.25
2019-02-06T06:57:33.085Z,102439.72
2019-02-06T07:02:36.756Z,102447.32
2019-02-06T12:56:06.899Z,102190.70
2019-02-06T13:01:10.171Z,102194.21
2019-02-06T13:06:13.460Z,102186.42
2019-02-06T13:11:16.923Z,102177.45
2019-02-06T13:16:20.198Z,102165.23
2019-02-06T13:21:23.516Z,102152.71
2019-02-06T13:26:26.789Z,102136.09
2019-02-06T13:31:30.052Z,102128.50
2019-02-06T13:36:33.517Z,102118.53
2019-02-06T13:41:36.798Z,102115.00
2019-02-06T13:46:40.093Z,102112.22
2019-02-06T13:51:43.420Z,102104.83
2019-02-06T13:56:46.715Z,102095.88
2019-02-06T14:01:50.287Z,102081.56
2019-02-06T14:06:53.549Z,102058.79
2019-02-06T14:11:56.844Z,102049.03
2019-02-06T14:17:00.125Z,102061.75
2019-02-06T14:22:03.417Z,102045.00
2019-02-06T14:27:13.057Z,102040.55
2019-02-06T14:32:31.855Z,102031.28
2019-02-06T14:37:41.189Z,102022.80
2019-02-06T14:42:53.286Z,102009.59
2019-02-06T14:48:27.194Z,102011.36
2019-02-06T14:53:49.138Z,102004.45
2019-02-06T14:59:13.044Z,101998.16
2019-02-06T15:04:39.057Z,102004.35
2019-02-06T15:09:51.415Z,101987.30
2019-02-06T15:15:19.265Z,101981.70
2019-02-06T15:20:46.263Z,101985.45
2019-02-06T15:26:09.266Z,101972.92
2019-02-06T15:31:30.730Z,101963.05
2019-02-06T15:36:42.950Z,101970.84
2019-02-06T15:41:52.317Z,101977.24
2019-02-06T15:47:11.013Z,101951.72
2019-02-06T15:52:26.193Z,101943.33
2019-02-06T15:57:50.688Z,101917.48
2019-02-06T16:02:57.206Z,101930.62
2019-02-06T16:08:28.121Z,101921.34
2019-02-06T16:14:04.584Z,101923.30
2019-02-06T16:19:19.602Z,101910.87
2019-02-06T16:24:56.169Z,101911.19
2019-02-06T16:30:08.342Z,101913.62
2019-02-06T16:35:17.922Z,101902.13
2019-02-06T16:40:57.215Z,101903.58
2019-02-06T16:46:13.092Z,101902.20
2019-02-06T16:51:19.653Z,101907.15
2019-02-06T16:56:42.840Z,101896.60
2019-02-06T17:01:52.087Z,101902.69
2019-02-06T17:07:13.683Z,101891.41
2019-02-06T17:12:29.380Z,101882.01
2019-02-06T17:17:53.710Z,101873.59
2019-02-06T17:23:12.399Z,101867.00
2019-02-06T17:28:37.599Z,101843.34
2019-02-06T17:34:02.089Z,101843.23
2019-02-06T17:39:24.494Z,101840.81
2019-02-06T17:44:33.835Z,101838.38
2019-02-06T17:49:49.482Z,101849.53
2019-02-06T17:55:19.344Z,101870.36
2019-02-06T18:00:34.773Z,101858.88
2019-02-06T18:05:40.225Z,101848.60
2019-02-06T18:10:43.095Z,101856.23
2019-02-06T18:15:46.453Z,101849.83
2019-02-06T18:20:49.746Z,101850.44
2019-02-06T18:25:53.400Z,101843.14
2019-02-06T18:30:56.691Z,101841.77
2019-02-06T18:36:00.371Z,101842.54
2019-02-06T18:41:03.650Z,101840.48
2019-02-06T18:46:06.995Z,101848.06
2019-02-06T18:51:10.666Z,101845.80
2019-02-06T18:56:13.953Z,101841.66
2019-02-06T19:01:17.252Z,101835.73
2019-02-06T19:06:20.929Z,101840.66
2019-02-06T19:11:24.752Z,101839.19
2019-02-06T19:16:28.079Z,101825.20
2019-02-06T19:21:31.743Z,101825.11
2019-02-06T19:26:35.047Z,101809.15
2019-02-06T19:31:38.343Z,101806.77
2019-02-06T19:36:41.694Z,101810.59
2019-02-06T19:41:44.974Z,101805.00
2019-02-06T19:46:48.274Z,101807.66
2019-02-06T19:51:51.565Z,101802.74
2019-02-06T19:56:54.917Z,101804.68
2019-02-06T20:01:58.241Z,101793.45
2019-02-06T20:07:01.552Z,101793.52
2019-02-06T20:12:04.835Z,101787.45
2019-02-06T20:17:08.128Z,101776.59
2019-02-06T20:22:11.420Z,101772.05
2019-02-06T20:27:14.753Z,101771.18
2019-02-06T20:32:18.044Z,101771.56
2019-02-06T20:37:21.411Z,101765.97
2019-02-06T20:42:24.702Z,101767.23
2019-02-06T20:47:28.264Z,101763.62
2019-02-06T20:52:31.554Z,101772.67
2019-02-06T20:57:34.842Z,101765.77
2019-02-06T21:02:38.115Z,101757.47
2019-02-06T21:07:41.405Z,101753.10
2019-02-06T21:12:44.765Z,101741.98
2019-02-06T21:17:48.055Z,101734.69
2019-02-06T21:22:51.415Z,101736.67
2019-02-06T21:27:54.983Z,101741.04
2019-02-06T21:32:58.339Z,101745.95
2019-02-06T21:38:01.642Z,101751.86
2019-02-06T21:43:05.877Z,101756.30
2019-02-06T21:48:09.632Z,101755.50
2019-02-06T21:53:13.297Z,101745.18
2019-02-06T21:58:16.585Z,101749.09
2019-02-06T22:03:19.856Z,101745.84
2019-02-06T22:08:23.145Z,101732.75
2019-02-06T22:13:26.474Z,101724.36
2019-02-06T22:18:29.936Z,101721.33
2019-02-06T22:23:33.226Z,101717.95
2019-02-06T22:28:36.519Z,101726.23
2019-02-06T22:33:39.809Z,101713.46
2019-02-06T22:38:43.117Z,101718.41
2019-02-06T22:43:46.425Z,101708.80
2019-02-06T22:48:49.730Z,101707.91
2019-02-06T22:53:53.002Z,101704.80
2019-02-06T22:58:56.284Z,101698.09
2019-02-06T23:04:02.641Z,101697.51
2019-02-06T23:09:07.069Z,101694.59
2019-02-06T23:14:17.132Z,101691.88
2019-02-06T23:19:15.353Z,101685.78
2019-02-06T23:24:18.625Z,101684.92
2019-02-06T23:29:21.900Z,101669.03
2019-02-06T23:34:25.196Z,101670.52
2019-02-06T23:39:28.487Z,101648.71
2019-02-06T23:44:32.158Z,101649.32
2019-02-06T23:49:35.448Z,101658.67
2019-02-06T23:54:38.712Z,101665.58
2019-02-06T23:59:42.000Z,101649.16
